createdAt,value
2022-09-28T00:00:32.926Z,91.05
2022-09-28T00:05:34.554Z,90.98
2022-09-28T00:10:35.801Z,92.43
2022-09-28T00:15:37.078Z,92.87
2022-09-28T00:20:38.324Z,93.13
2022-09-28T00:25:39.583Z,94.90
2022-09-28T00:30:40.894Z,94.38
2022-09-28T00:35:43.458Z,95.26
2022-09-28T00:40:44.805Z,95.56
2022-09-28T00:45:55.693Z,96.88
2022-09-28T00:50:59.291Z,96.51
2022-09-28T00:56:07.021Z,96.93
2022-09-28T01:01:08.780Z,96.75
2022-09-28T01:06:10.395Z,97.26
2022-09-28T01:11:11.649Z,97.67
2022-09-28T01:16:19.036Z,99.27
2022-09-28T01:21:22.715Z,99.42
2022-09-28T01:26:34.680Z,100.00
2022-09-28T01:31:37.092Z,100.00
2022-09-28T01:36:47.198Z,100.00
2022-09-28T01:41:53.109Z,100.00
2022-09-28T01:46:54.576Z,99.48
2022-09-28T01:52:13.683Z,99.92
2022-09-28T01:57:25.541Z,99.79
2022-09-28T02:02:33.879Z,100.00
2022-09-28T02:07:42.430Z,100.00
2022-09-28T02:12:51.748Z,100.00
2022-09-28T02:17:53.502Z,100.00
2022-09-28T02:22:57.745Z,100.00
2022-09-28T02:28:08.297Z,100.00
2022-09-28T02:33:15.531Z,100.00
2022-09-28T02:38:17.039Z,99.74
2022-09-28T02:43:24.543Z,98.71
2022-09-28T02:48:47.206Z,98.98
2022-09-28T02:54:20.019Z,98.21
2022-09-28T02:59:46.351Z,97.07
2022-09-28T03:05:11.999Z,96.25
2022-09-28T03:10:34.458Z,96.10
2022-09-28T03:15:36.847Z,96.09
2022-09-28T03:20:38.363Z,93.50
2022-09-28T03:25:39.627Z,94.25
2022-09-28T03:30:42.157Z,92.29
2022-09-28T03:35:47.457Z,94.41
2022-09-28T03:40:56.879Z,93.45
2022-09-28T03:46:00.004Z,92.01
2022-09-28T03:51:04.407Z,93.60
2022-09-28T03:56:08.667Z,93.27
2022-09-28T04:01:16.580Z,94.64
2022-09-28T04:06:18.459Z,93.21
2022-09-28T04:11:19.851Z,94.39
2022-09-28T04:16:22.610Z,92.03
2022-09-28T04:21:24.062Z,91.61
2022-09-28T04:26:27.370Z,90.50
2022-09-28T04:31:29.944Z,93.92
2022-09-28T04:36:31.233Z,92.37
2022-09-28T04:41:33.121Z,93.39
2022-09-28T04:46:34.973Z,93.56
2022-09-28T04:51:36.266Z,92.14
2022-09-28T04:56:37.561Z,92.85
2022-09-28T05:01:39.567Z,91.90
2022-09-28T05:06:40.989Z,92.73
2022-09-28T05:11:42.286Z,92.30
2022-09-28T05:16:44.422Z,91.78
2022-09-28T05:21:46.903Z,92.43
2022-09-28T05:26:48.176Z,91.63
2022-09-28T05:31:49.495Z,89.46
2022-09-28T05:36:50.919Z,90.05
2022-09-28T05:41:52.243Z,91.44
2022-09-28T05:46:54.652Z,89.16
2022-09-28T05:51:55.915Z,91.13
2022-09-28T05:56:57.214Z,88.61
2022-09-28T06:01:58.592Z,90.19
2022-09-28T06:06:59.900Z,90.14
2022-09-28T06:12:01.346Z,88.99
2022-09-28T06:17:02.695Z,90.86
2022-09-28T06:22:05.314Z,86.96
2022-09-28T06:27:06.708Z,87.70
2022-09-28T06:32:08.345Z,86.04
2022-09-28T06:37:09.633Z,87.23
2022-09-28T06:42:10.955Z,85.64
2022-09-28T06:47:12.345Z,84.78
2022-09-28T06:52:13.767Z,86.04
2022-09-28T06:57:15.061Z,83.59
2022-09-28T07:02:16.472Z,81.41
2022-09-28T07:07:18.262Z,82.74
2022-09-28T07:12:19.638Z,83.83
2022-09-28T07:17:21.003Z,85.98
2022-09-28T07:22:36.545Z,82.72
2022-09-28T07:27:41.353Z,81.01
2022-09-28T07:32:44.899Z,76.74
2022-09-28T07:37:46.559Z,78.27
2022-09-28T07:42:48.243Z,76.67
2022-09-28T07:47:50.744Z,74.23
2022-09-28T07:52:52.097Z,74.15
2022-09-28T07:58:00.907Z,73.73
2022-09-28T08:03:02.673Z,70.54
2022-09-28T08:08:03.996Z,69.67
2022-09-28T08:13:07.541Z,70.08
2022-09-28T08:18:10.130Z,69.61
2022-09-28T08:23:11.832Z,68.11
2022-09-28T08:28:13.080Z,65.46
2022-09-28T08:33:17.761Z,65.47
2022-09-28T08:38:19.338Z,63.88
2022-09-28T08:43:38.355Z,66.40
2022-09-28T08:49:13.427Z,63.12
2022-09-28T08:54:34.263Z,62.38
2022-09-28T08:59:48.206Z,60.43
2022-09-28T09:04:51.914Z,62.09
2022-09-28T09:10:18.213Z,63.61
2022-09-28T09:15:31.195Z,63.05
2022-09-28T09:20:52.238Z,64.31
2022-09-28T09:26:03.544Z,61.14
2022-09-28T09:31:24.262Z,61.33
2022-09-28T09:36:43.881Z,55.73
2022-09-28T09:42:03.912Z,57.16
2022-09-28T09:47:11.337Z,53.40
2022-09-28T09:52:26.437Z,57.40
2022-09-28T09:57:32.839Z,56.24
2022-09-28T10:02:35.026Z,58.48
2022-09-28T10:07:59.225Z,58.42
2022-09-28T10:13:00.868Z,58.98
2022-09-28T10:18:10.021Z,59.64
2022-09-28T10:23:23.446Z,58.98
2022-09-28T10:28:49.285Z,58.87
2022-09-28T10:33:53.109Z,56.00
2022-09-28T10:38:55.798Z,52.52
2022-09-28T10:44:06.771Z,43.44
2022-09-28T10:49:18.191Z,44.33
2022-09-28T10:54:25.164Z,29.48
2022-09-28T10:59:29.530Z,30.43
2022-09-28T11:04:40.849Z,37.40
2022-09-28T11:09:45.762Z,39.22
2022-09-28T11:14:54.852Z,37.06
2022-09-28T11:20:30.857Z,35.48
2022-09-28T11:25:33.304Z,36.58
2022-09-28T11:30:45.346Z,32.17
2022-09-28T11:35:54.812Z,31.97
2022-09-28T11:41:33.395Z,33.21
2022-09-28T11:46:52.280Z,35.28
2022-09-28T11:51:57.436Z,37.53
2022-09-28T11:57:01.268Z,40.87
2022-09-28T12:02:25.919Z,42.56
2022-09-28T12:07:58.970Z,46.13
2022-09-28T12:13:14.408Z,40.26
2022-09-28T12:18:24.687Z,40.34
2022-09-28T12:23:33.821Z,38.27
2022-09-28T12:28:50.322Z,38.38
2022-09-28T12:33:52.103Z,35.34
2022-09-28T12:39:30.663Z,35.35
2022-09-28T12:44:34.098Z,39.38
2022-09-28T12:55:28.935Z,41.40
2022-09-28T13:00:43.265Z,42.99
2022-09-28T13:06:05.211Z,42.13
2022-09-28T13:11:25.221Z,45.01
2022-09-28T13:16:41.812Z,41.15
2022-09-28T13:21:57.728Z,42.22
2022-09-28T13:27:05.831Z,43.30
2022-09-28T13:32:09.537Z,44.26
2022-09-28T13:37:16.787Z,42.28
2022-09-28T13:42:24.454Z,44.34
2022-09-28T13:47:45.944Z,46.30
2022-09-28T13:52:56.705Z,45.83
2022-09-28T13:58:04.374Z,45.76
2022-09-28T14:03:14.853Z,45.65
2022-09-28T14:08:31.304Z,47.04
2022-09-28T14:13:41.919Z,45.99
2022-09-28T14:19:06.911Z,47.26
2022-09-28T14:24:30.893Z,48.74
2022-09-28T14:29:36.150Z,48.29
2022-09-28T14:34:42.453Z,48.58
2022-09-28T14:40:04.048Z,49.13
2022-09-28T14:45:07.236Z,48.04
2022-09-28T14:50:27.243Z,49.72
2022-09-28T14:55:40.631Z,51.19
2022-09-28T15:00:44.224Z,52.69
2022-09-28T15:05:47.581Z,51.80
2022-09-28T15:10:50.467Z,52.81
2022-09-28T15:15:56.517Z,52.93
2022-09-28T15:20:58.004Z,51.35
2022-09-28T15:25:59.299Z,52.36
2022-09-28T15:31:03.004Z,50.87
2022-09-28T15:36:07.203Z,52.95
2022-09-28T15:41:10.184Z,51.71
2022-09-28T15:46:19.094Z,52.36
2022-09-28T15:51:21.963Z,54.88
2022-09-28T15:56:23.515Z,53.13
2022-09-28T16:01:42.448Z,53.57
2022-09-28T16:06:44.286Z,54.87
2022-09-28T16:11:47.690Z,55.68
2022-09-28T16:16:51.273Z,55.88
2022-09-28T16:21:55.659Z,55.35
2022-09-28T16:26:58.543Z,55.28
2022-09-28T16:32:25.507Z,56.05
2022-09-28T16:37:31.785Z,56.03
2022-09-28T16:42:34.150Z,55.65
2022-09-28T16:47:35.889Z,56.75
2022-09-28T16:52:59.850Z,56.67
2022-09-28T16:58:05.033Z,56.01
2022-09-28T17:03:18.289Z,57.11
2022-09-28T17:08:22.916Z,57.21
2022-09-28T17:13:31.425Z,58.26
2022-09-28T17:18:32.760Z,58.75
2022-09-28T17:23:34.124Z,59.47
2022-09-28T17:28:36.760Z,58.71
2022-09-28T17:33:38.180Z,60.08
2022-09-28T17:38:39.767Z,62.01
2022-09-28T17:43:43.886Z,62.20
2022-09-28T17:48:47.515Z,62.52
2022-09-28T17:53:49.418Z,62.61
2022-09-28T17:58:51.043Z,62.63
2022-09-28T18:03:52.329Z,63.57
2022-09-28T18:08:53.594Z,63.87
2022-09-28T18:13:54.907Z,63.45
2022-09-28T18:18:58.032Z,63.38
2022-09-28T18:23:59.361Z,65.12
2022-09-28T18:29:00.715Z,65.17
2022-09-28T18:34:02.050Z,65.01
2022-09-28T18:39:03.884Z,64.55
2022-09-28T18:44:05.361Z,64.18
2022-09-28T18:49:06.756Z,63.41
2022-09-28T18:54:08.096Z,64.45
2022-09-28T18:59:12.275Z,66.42
2022-09-28T19:04:13.731Z,66.19
2022-09-28T19:09:18.767Z,65.16
2022-09-28T19:14:20.257Z,65.81
2022-09-28T19:19:21.614Z,66.08
2022-09-28T19:24:22.941Z,66.50
2022-09-28T19:29:24.465Z,66.47
2022-09-28T19:34:29.826Z,66.38
2022-09-28T19:39:31.150Z,65.85
2022-09-28T19:44:33.161Z,66.94
2022-09-28T19:49:37.056Z,67.22
2022-09-28T19:54:38.364Z,67.54
2022-09-28T19:59:39.793Z,67.59
2022-09-28T20:04:41.145Z,68.18
2022-09-28T20:09:42.440Z,69.30
2022-09-28T20:14:43.845Z,68.89
2022-09-28T20:19:45.230Z,69.19
2022-09-28T20:24:46.568Z,69.64
2022-09-28T20:29:48.108Z,69.64
2022-09-28T20:34:49.655Z,69.37
2022-09-28T20:39:50.977Z,69.71
2022-09-28T20:44:52.477Z,70.21
2022-09-28T20:49:53.774Z,70.20
2022-09-28T20:54:55.057Z,69.29
2022-09-28T20:59:58.646Z,69.43
2022-09-28T21:05:00.036Z,68.96
2022-09-28T21:10:01.446Z,69.69
2022-09-28T21:15:05.965Z,70.09
2022-09-28T21:20:08.353Z,68.97
2022-09-28T21:25:09.601Z,68.07
2022-09-28T21:30:11.345Z,66.63
2022-09-28T21:35:12.738Z,69.10
2022-09-28T21:40:15.078Z,67.65
2022-09-28T21:45:17.248Z,69.40
2022-09-28T21:50:21.858Z,68.33
2022-09-28T21:55:23.641Z,69.41
2022-09-28T22:00:25.105Z,69.89
2022-09-28T22:05:27.023Z,70.01
2022-09-28T22:10:28.338Z,70.38
2022-09-28T22:15:30.187Z,70.48
2022-09-28T22:20:31.570Z,69.41
2022-09-28T22:25:32.856Z,69.41
2022-09-28T22:30:34.598Z,70.07
2022-09-28T22:35:35.845Z,69.97
2022-09-28T22:40:38.558Z,70.51
2022-09-28T22:45:39.870Z,69.68
2022-09-28T22:50:51.551Z,71.33
2022-09-28T22:55:52.875Z,71.31
2022-09-28T23:00:57.613Z,71.77
2022-09-28T23:05:58.930Z,70.83
2022-09-28T23:11:00.499Z,71.61
2022-09-28T23:16:04.827Z,72.07
2022-09-28T23:21:10.030Z,72.46
2022-09-28T23:26:21.147Z,72.40
2022-09-28T23:31:25.108Z,73.21
2022-09-28T23:36:27.524Z,73.49
2022-09-28T23:41:29.201Z,74.56
2022-09-28T23:46:30.858Z,74.09
2022-09-28T23:51:32.207Z,74.69
2022-09-28T23:56:33.468Z,75.56
